createdAt,value
2022-08-29T00:00:52.306Z,102250.06
2022-08-29T00:03:22.070Z,102244.77
2022-08-29T00:05:53.083Z,102244.67
2022-08-29T00:08:24.330Z,102249.96
2022-08-29T00:10:54.443Z,102250.37
2022-08-29T00:13:24.543Z,102249.75
2022-08-29T00:15:54.378Z,102242.97
2022-08-29T00:18:24.235Z,102248.33
2022-08-29T00:20:54.167Z,102246.73
2022-08-29T00:23:24.287Z,102248.62
2022-08-29T00:25:54.813Z,102241.51
2022-08-29T00:28:25.051Z,102240.77
2022-08-29T00:30:54.896Z,102244.28
2022-08-29T00:33:24.891Z,102221.19
2022-08-29T00:35:54.812Z,102221.19
2022-08-29T00:38:27.962Z,102240.68
2022-08-29T00:40:58.900Z,102242.38
2022-08-29T00:43:31.365Z,102236.30
2022-08-29T00:46:32.282Z,102240.64
2022-08-29T00:49:08.030Z,102242.02
2022-08-29T00:51:39.034Z,102247.08
2022-08-29T00:54:12.710Z,102240.06
2022-08-29T00:56:44.416Z,102240.06
2022-08-29T00:59:20.170Z,102264.45
2022-08-29T01:01:50.379Z,102251.29
2022-08-29T01:04:24.180Z,102254.86
2022-08-29T01:06:54.335Z,102254.68
2022-08-29T01:09:26.446Z,102253.80
2022-08-29T01:12:13.846Z,102252.42
2022-08-29T01:14:55.706Z,102254.19
2022-08-29T01:17:32.345Z,102256.45
2022-08-29T01:20:05.127Z,102264.34
2022-08-29T01:22:47.608Z,102268.12
2022-08-29T01:25:20.513Z,102273.58
2022-08-29T01:27:53.627Z,102275.23
2022-08-29T01:30:23.242Z,102276.07
2022-08-29T01:32:53.151Z,102270.11
2022-08-29T01:35:23.028Z,102278.63
2022-08-29T01:37:53.341Z,102274.13
2022-08-29T01:40:24.810Z,102274.09
2022-08-29T01:42:55.491Z,102267.53
2022-08-29T01:45:25.414Z,102259.12
2022-08-29T01:47:55.170Z,102268.20
2022-08-29T01:50:25.705Z,102268.20
2022-08-29T01:52:55.475Z,102265.84
2022-08-29T01:55:24.969Z,102260.61
2022-08-29T01:57:54.736Z,102264.41
2022-08-29T02:00:25.434Z,102254.63
2022-08-29T02:02:56.737Z,102261.66
2022-08-29T02:05:26.280Z,102259.77
2022-08-29T02:07:56.547Z,102264.50
2022-08-29T02:10:27.226Z,102262.88
2022-08-29T02:12:57.623Z,102259.63
2022-08-29T02:15:27.477Z,102257.37
2022-08-29T02:17:57.608Z,102263.48
2022-08-29T02:20:27.658Z,102257.14
2022-08-29T02:22:57.177Z,102264.48
2022-08-29T02:25:41.803Z,102261.94
2022-08-29T02:28:13.107Z,102259.25
2022-08-29T02:30:50.159Z,102266.00
2022-08-29T02:33:22.456Z,102262.53
2022-08-29T02:35:53.340Z,102269.48
2022-08-29T02:38:23.318Z,102270.95
2022-08-29T02:40:53.923Z,102272.32
2022-08-29T02:43:25.395Z,102266.03
2022-08-29T02:45:55.645Z,102265.26
2022-08-29T02:48:26.133Z,102266.05
2022-08-29T02:50:59.571Z,102267.10
2022-08-29T02:53:31.062Z,102274.16
2022-08-29T02:56:01.796Z,102270.73
2022-08-29T02:58:31.714Z,102275.44
2022-08-29T03:01:01.642Z,102276.77
2022-08-29T03:03:33.081Z,102273.48
2022-08-29T03:06:02.930Z,102280.01
2022-08-29T03:08:35.631Z,102274.02
2022-08-29T03:11:06.016Z,102276.23
2022-08-29T03:13:36.943Z,102275.26
2022-08-29T03:16:09.667Z,102273.19
2022-08-29T03:18:39.922Z,102272.20
2022-08-29T03:21:17.839Z,102263.32
2022-08-29T03:23:49.054Z,102266.37
2022-08-29T03:26:19.561Z,102264.35
2022-08-29T03:28:49.403Z,102258.48
2022-08-29T03:31:19.430Z,102258.32
2022-08-29T03:33:49.258Z,102261.09
2022-08-29T03:36:18.934Z,102262.86
2022-08-29T03:38:49.683Z,102258.30
2022-08-29T03:41:28.084Z,102261.69
2022-08-29T03:43:59.496Z,102267.42
2022-08-29T03:46:29.419Z,102262.02
2022-08-29T03:48:59.162Z,102261.89
2022-08-29T03:51:30.701Z,102263.70
2022-08-29T03:54:00.770Z,102256.73
2022-08-29T03:56:31.327Z,102260.89
2022-08-29T03:59:01.260Z,102265.98
2022-08-29T04:01:31.125Z,102268.23
2022-08-29T04:04:00.905Z,102260.45
2022-08-29T04:06:31.042Z,102257.98
2022-08-29T04:09:01.461Z,102257.19
2022-08-29T04:11:31.219Z,102258.72
2022-08-29T04:14:02.056Z,102258.75
2022-08-29T04:16:31.899Z,102254.95
2022-08-29T04:19:01.682Z,102252.09
2022-08-29T04:21:35.013Z,102251.13
2022-08-29T04:24:06.735Z,102258.36
2022-08-29T04:26:37.669Z,102256.54
2022-08-29T04:29:09.691Z,102254.20
2022-08-29T04:31:39.818Z,102250.33
2022-08-29T04:34:13.292Z,102256.05
2022-08-29T04:36:47.515Z,102250.83
2022-08-29T04:39:17.590Z,102256.09
2022-08-29T04:41:47.665Z,102264.77
2022-08-29T04:44:17.431Z,102261.41
2022-08-29T04:46:47.631Z,102261.41
2022-08-29T04:49:17.369Z,102256.40
2022-08-29T04:51:47.146Z,102260.16
2022-08-29T04:54:16.941Z,102266.91
2022-08-29T04:56:47.313Z,102264.16
2022-08-29T04:59:18.686Z,102267.09
2022-08-29T05:01:50.371Z,102266.00
2022-08-29T05:04:19.882Z,102262.32
2022-08-29T05:06:49.656Z,102261.47
2022-08-29T05:09:19.512Z,102258.13
2022-08-29T05:11:49.852Z,102264.50
2022-08-29T05:14:19.931Z,102267.09
2022-08-29T05:16:49.990Z,102261.28
2022-08-29T05:19:20.341Z,102261.28
2022-08-29T05:21:51.076Z,102275.05
2022-08-29T05:24:22.171Z,102289.12
2022-08-29T05:26:52.510Z,102292.86
2022-08-29T05:29:22.374Z,102288.01
2022-08-29T05:31:52.229Z,102287.40
2022-08-29T05:34:34.033Z,102282.90
2022-08-29T05:36:53.705Z,102282.90
2022-08-29T05:39:23.494Z,102288.19
2022-08-29T05:41:58.327Z,102286.91
2022-08-29T05:44:34.914Z,102286.41
2022-08-29T05:47:04.136Z,102282.38
2022-08-29T05:49:35.670Z,102286.91
2022-08-29T05:52:07.868Z,102286.91
2022-08-29T05:54:39.715Z,102277.53
2022-08-29T05:57:16.697Z,102277.64
2022-08-29T05:59:43.581Z,102272.57
2022-08-29T06:02:13.913Z,102272.57
2022-08-29T06:04:44.172Z,102250.20
2022-08-29T06:07:14.956Z,102282.45
2022-08-29T06:09:46.112Z,102275.72
2022-08-29T06:12:16.578Z,102284.73
2022-08-29T06:14:50.253Z,102290.63
2022-08-29T06:17:18.675Z,102286.33
2022-08-29T06:19:51.492Z,102285.91
2022-08-29T06:22:22.420Z,102289.37
2022-08-29T06:24:55.538Z,102298.37
2022-08-29T06:27:27.084Z,102302.00
2022-08-29T06:30:00.158Z,102299.87
2022-08-29T06:32:29.002Z,102295.32
2022-08-29T06:34:58.835Z,102294.88
2022-08-29T06:37:28.613Z,102300.18
2022-08-29T06:39:58.451Z,102305.48
2022-08-29T06:42:27.948Z,102306.86
2022-08-29T06:44:58.604Z,102308.32
2022-08-29T06:47:28.139Z,102307.04
2022-08-29T06:49:57.907Z,102284.73
2022-08-29T06:52:28.597Z,102284.73
2022-08-29T06:54:58.498Z,102307.97
2022-08-29T06:57:28.471Z,102317.63
2022-08-29T06:59:58.280Z,102313.03
2022-08-29T07:02:27.921Z,102306.51
2022-08-29T07:04:57.658Z,102302.97
2022-08-29T07:07:27.426Z,102305.59
2022-08-29T07:09:57.193Z,102303.31
2022-08-29T07:12:27.170Z,102314.05
2022-08-29T07:14:58.552Z,102310.88
2022-08-29T07:17:30.181Z,102310.96
2022-08-29T07:20:00.277Z,102315.47
2022-08-29T07:22:30.058Z,102315.21
2022-08-29T07:24:59.825Z,102311.84
2022-08-29T07:27:29.608Z,102319.21
2022-08-29T07:30:01.389Z,102320.03
2022-08-29T07:32:31.270Z,102320.03
2022-08-29T07:35:01.038Z,102317.63
2022-08-29T07:37:30.990Z,102318.67
2022-08-29T07:40:00.839Z,102311.52
2022-08-29T07:42:30.636Z,102305.23
2022-08-29T07:45:00.473Z,102304.53
2022-08-29T07:47:30.054Z,102301.16
2022-08-29T07:50:01.674Z,102297.98
2022-08-29T07:52:31.995Z,102298.66
2022-08-29T07:55:02.338Z,102299.74
2022-08-29T07:57:32.538Z,102301.88
2022-08-29T08:00:05.814Z,102297.47
2022-08-29T08:02:37.431Z,102305.17
2022-08-29T08:05:08.945Z,102301.37
2022-08-29T08:07:40.297Z,102306.58
2022-08-29T08:10:11.905Z,102297.36
2022-08-29T08:12:41.976Z,102304.23
2022-08-29T08:15:11.933Z,102307.47
2022-08-29T08:17:44.163Z,102303.84
2022-08-29T08:20:15.753Z,102305.16
2022-08-29T08:22:45.527Z,102302.11
2022-08-29T08:25:15.116Z,102299.67
2022-08-29T08:27:44.888Z,102292.88
2022-08-29T08:30:16.519Z,102291.55
2022-08-29T08:32:49.597Z,102291.84
2022-08-29T08:35:22.546Z,102292.78
2022-08-29T08:37:51.564Z,102295.91
2022-08-29T08:40:26.096Z,102295.61
2022-08-29T08:43:03.652Z,102292.22
2022-08-29T08:45:42.511Z,102310.63
2022-08-29T08:48:29.772Z,102311.77
2022-08-29T08:51:02.666Z,102303.50
2022-08-29T08:53:44.283Z,102304.48
2022-08-29T08:56:33.865Z,102306.91
2022-08-29T08:59:06.693Z,102311.30
2022-08-29T09:01:45.282Z,102309.52
2022-08-29T09:04:34.383Z,102306.19
2022-08-29T09:07:07.222Z,102303.49
2022-08-29T09:10:13.023Z,102280.59
2022-08-29T09:13:06.567Z,102280.59
2022-08-29T09:15:48.628Z,102302.50
2022-08-29T09:18:33.088Z,102302.50
2022-08-29T09:21:29.975Z,102307.80
2022-08-29T09:23:44.976Z,102313.22
2022-08-29T09:26:21.660Z,102319.73
2022-08-29T09:28:51.888Z,102314.81
2022-08-29T09:31:25.198Z,102313.36
2022-08-29T09:34:08.100Z,102310.38
2022-08-29T09:36:51.022Z,102292.66
2022-08-29T09:39:26.362Z,102292.66
2022-08-29T09:42:01.847Z,102307.48
2022-08-29T09:44:31.909Z,102308.13
2022-08-29T09:47:10.462Z,102312.86
2022-08-29T09:49:42.484Z,102311.07
2022-08-29T09:52:22.538Z,102309.68
2022-08-29T09:54:52.693Z,102305.83
2022-08-29T09:57:31.363Z,102307.94
2022-08-29T10:00:19.166Z,102304.92
2022-08-29T10:02:52.075Z,102304.59
2022-08-29T10:05:31.028Z,102304.52
2022-08-29T10:08:00.902Z,102304.30
2022-08-29T10:10:35.546Z,102304.12
2022-08-29T10:13:12.008Z,102308.94
2022-08-29T10:15:51.639Z,102307.13
2022-08-29T10:18:28.568Z,102311.28
2022-08-29T10:21:07.760Z,102302.47
2022-08-29T10:23:59.758Z,102297.44
2022-08-29T10:26:50.756Z,102306.84
2022-08-29T10:29:31.758Z,102306.42
2022-08-29T10:32:09.510Z,102303.18
2022-08-29T10:34:52.368Z,102308.61
2022-08-29T10:37:31.071Z,102307.30
2022-08-29T10:40:16.818Z,102311.91
2022-08-29T10:42:49.911Z,102307.96
2022-08-29T10:45:25.674Z,102302.88
2022-08-29T10:48:14.532Z,102300.45
2022-08-29T10:50:55.841Z,102294.59
2022-08-29T10:53:37.627Z,102291.63
2022-08-29T10:56:22.692Z,102290.36
2022-08-29T10:59:13.691Z,102282.06
2022-08-29T11:01:46.506Z,102274.37
2022-08-29T11:04:25.124Z,102278.00
2022-08-29T11:07:03.255Z,102275.03
2022-08-29T11:09:38.924Z,102283.09
2022-08-29T11:12:17.812Z,102285.20
2022-08-29T11:15:08.388Z,102272.30
2022-08-29T11:17:41.205Z,102246.67
2022-08-29T11:20:22.312Z,102246.67
2022-08-29T11:22:55.120Z,102258.55
2022-08-29T11:25:24.913Z,102236.02
2022-08-29T11:28:19.594Z,102236.02
2022-08-29T11:30:55.683Z,102252.78
2022-08-29T11:33:37.335Z,102249.63
2022-08-29T11:36:18.742Z,102250.09
2022-08-29T11:39:03.445Z,102239.39
2022-08-29T11:41:39.291Z,102244.10
2022-08-29T11:44:24.405Z,102238.92
2022-08-29T11:46:56.667Z,102237.91
2022-08-29T11:49:29.909Z,102227.36
2022-08-29T11:52:16.772Z,102223.79
2022-08-29T11:54:49.202Z,102225.45
2022-08-29T11:57:21.732Z,102225.52
2022-08-29T12:00:01.404Z,102223.37
2022-08-29T12:02:36.601Z,102222.89
2022-08-29T12:05:10.338Z,102222.03
2022-08-29T12:07:48.929Z,102224.03
2022-08-29T12:10:24.223Z,102233.23
2022-08-29T12:12:56.585Z,102230.16
2022-08-29T12:15:36.392Z,102223.69
2022-08-29T12:18:16.315Z,102221.78
2022-08-29T12:20:48.932Z,102221.52
2022-08-29T12:23:27.708Z,102221.52
2022-08-29T12:26:22.373Z,102214.45
2022-08-29T12:28:37.497Z,102189.31
2022-08-29T12:31:21.935Z,102189.31
2022-08-29T12:34:00.591Z,102210.02
2022-08-29T12:36:52.088Z,102205.81
2022-08-29T12:39:46.103Z,102217.31
2022-08-29T12:42:35.906Z,102209.63
2022-08-29T12:45:26.739Z,102215.20
2022-08-29T12:48:11.216Z,102206.66
2022-08-29T12:50:47.651Z,102201.63
2022-08-29T12:53:20.542Z,102187.89
2022-08-29T12:55:53.353Z,102187.57
2022-08-29T12:58:39.220Z,102182.16
2022-08-29T13:01:12.090Z,102176.59
2022-08-29T13:03:41.815Z,102173.52
2022-08-29T13:06:13.994Z,102168.50
2022-08-29T13:08:43.934Z,102169.24
2022-08-29T13:11:13.836Z,102146.33
2022-08-29T13:13:43.618Z,102146.33
2022-08-29T13:16:25.180Z,102169.80
2022-08-29T13:19:10.064Z,102162.53
2022-08-29T13:21:29.019Z,102168.42
2022-08-29T13:24:13.883Z,102160.41
2022-08-29T13:26:50.655Z,102152.56
2022-08-29T13:29:21.213Z,102153.09
2022-08-29T13:32:12.134Z,102152.99
2022-08-29T13:35:04.227Z,102147.22
2022-08-29T13:37:39.732Z,102152.28
2022-08-29T13:40:36.766Z,102149.31
2022-08-29T13:43:07.803Z,102141.59
2022-08-29T13:45:38.550Z,102144.35
2022-08-29T13:48:20.113Z,102143.31
2022-08-29T13:50:49.710Z,102138.55
2022-08-29T13:53:19.533Z,102144.02
2022-08-29T13:55:49.047Z,102142.92
2022-08-29T13:58:21.416Z,102134.13
2022-08-29T14:00:52.267Z,102142.00
2022-08-29T14:03:23.070Z,102137.77
2022-08-29T14:05:55.859Z,102125.86
2022-08-29T14:08:26.003Z,102119.77
2022-08-29T14:10:55.787Z,102115.52
2022-08-29T14:13:25.552Z,102117.89
2022-08-29T14:15:55.364Z,102109.86
2022-08-29T14:18:24.868Z,102102.92
2022-08-29T14:20:54.925Z,102103.55
2022-08-29T14:23:24.783Z,102107.80
2022-08-29T14:25:54.618Z,102099.33
2022-08-29T14:28:24.090Z,102094.87
2022-08-29T14:30:54.031Z,102100.91
2022-08-29T14:33:23.817Z,102100.87
2022-08-29T14:35:55.137Z,102096.69
2022-08-29T14:38:24.929Z,102099.09
2022-08-29T14:40:54.804Z,102099.77
2022-08-29T14:43:24.997Z,102102.79
2022-08-29T14:45:54.841Z,102102.62
2022-08-29T14:48:24.331Z,102095.06
2022-08-29T14:50:54.104Z,102092.79
2022-08-29T14:53:23.867Z,102091.18
2022-08-29T14:55:54.184Z,102095.33
2022-08-29T14:58:23.947Z,102090.05
2022-08-29T15:00:54.322Z,102078.33
2022-08-29T15:03:25.305Z,102079.07
2022-08-29T15:05:55.149Z,102073.90
2022-08-29T15:08:24.803Z,102071.45
2022-08-29T15:10:54.559Z,102066.98
2022-08-29T15:13:24.492Z,102064.10
2022-08-29T15:15:54.658Z,102070.78
2022-08-29T15:19:05.457Z,102070.91
2022-08-29T15:20:56.319Z,102059.24
2022-08-29T15:23:26.214Z,102061.87
2022-08-29T15:25:56.038Z,102059.78
2022-08-29T15:28:25.521Z,102059.06
2022-08-29T15:30:55.417Z,102054.92
2022-08-29T15:33:25.450Z,102053.37
2022-08-29T15:35:55.454Z,102049.23
2022-08-29T15:38:24.948Z,102047.42
2022-08-29T15:40:54.787Z,102046.78
2022-08-29T15:43:24.867Z,102045.20
2022-08-29T15:45:59.120Z,102042.77
2022-08-29T15:48:25.999Z,102044.48
2022-08-29T15:50:55.861Z,102032.34
2022-08-29T15:53:25.692Z,102036.95
2022-08-29T15:55:55.467Z,102032.21
2022-08-29T15:58:25.091Z,102030.88
2022-08-29T16:00:54.851Z,102038.00
2022-08-29T16:03:24.796Z,102037.44
2022-08-29T16:05:54.566Z,102031.02
2022-08-29T16:08:29.629Z,102025.78
2022-08-29T16:10:56.094Z,102030.90
2022-08-29T16:13:26.035Z,102019.60
2022-08-29T16:15:55.681Z,102019.60
2022-08-29T16:18:25.509Z,102017.41
2022-08-29T16:20:56.789Z,102024.27
2022-08-29T16:23:26.697Z,102023.54
2022-08-29T16:25:56.469Z,102019.05
2022-08-29T16:28:27.878Z,102016.13
2022-08-29T16:30:57.674Z,102017.36
2022-08-29T16:33:27.455Z,102019.67
2022-08-29T16:35:58.402Z,102009.48
2022-08-29T16:38:28.711Z,102015.09
2022-08-29T16:41:00.008Z,102017.34
2022-08-29T16:43:29.590Z,102020.83
2022-08-29T16:45:59.400Z,102025.41
2022-08-29T16:48:29.259Z,102027.51
2022-08-29T16:50:59.300Z,102021.55
2022-08-29T16:53:29.071Z,102033.66
2022-08-29T16:55:58.898Z,102024.08
2022-08-29T16:58:46.075Z,102020.98
2022-08-29T17:01:16.034Z,102026.42
2022-08-29T17:03:46.083Z,102023.02
2022-08-29T17:06:15.843Z,102015.47
2022-08-29T17:08:44.929Z,102010.98
2022-08-29T17:11:14.096Z,102006.45
2022-08-29T17:13:42.883Z,102007.16
2022-08-29T17:16:13.494Z,102008.75
2022-08-29T17:18:43.324Z,102007.55
2022-08-29T17:21:13.442Z,102008.08
2022-08-29T17:23:43.641Z,102007.70
2022-08-29T17:26:17.956Z,102011.27
2022-08-29T17:28:48.269Z,101991.81
2022-08-29T17:31:18.711Z,101991.81
2022-08-29T17:33:49.266Z,102016.70
2022-08-29T17:36:19.507Z,102015.11
2022-08-29T17:38:49.805Z,102011.88
2022-08-29T17:41:23.176Z,102010.14
2022-08-29T17:43:53.105Z,102014.89
2022-08-29T17:46:23.530Z,102010.31
2022-08-29T17:48:53.302Z,102013.27
2022-08-29T17:51:23.074Z,102021.07
2022-08-29T17:53:54.231Z,102017.96
2022-08-29T17:56:32.848Z,102025.12
2022-08-29T17:59:04.257Z,102025.12
2022-08-29T18:01:35.610Z,102020.55
2022-08-29T18:04:06.917Z,102017.48
2022-08-29T18:06:37.055Z,102028.05
2022-08-29T18:09:07.951Z,102018.39
2022-08-29T18:11:40.372Z,102017.74
2022-08-29T18:14:12.928Z,102022.11
2022-08-29T18:16:42.760Z,102023.45
2022-08-29T18:19:14.241Z,102022.94
2022-08-29T18:21:44.861Z,102024.77
2022-08-29T18:24:15.599Z,102019.71
2022-08-29T18:26:47.211Z,102027.06
2022-08-29T18:29:17.337Z,102028.94
2022-08-29T18:31:47.171Z,102034.52
2022-08-29T18:34:16.972Z,102029.11
2022-08-29T18:36:48.271Z,102028.70
2022-08-29T18:39:19.463Z,102025.47
2022-08-29T18:41:49.224Z,102025.69
2022-08-29T18:44:18.989Z,102031.17
2022-08-29T18:46:49.063Z,102032.84
2022-08-29T18:49:20.696Z,102036.17
2022-08-29T18:51:50.777Z,102040.37
2022-08-29T18:54:24.066Z,102041.83
2022-08-29T18:56:51.751Z,102027.83
2022-08-29T18:59:23.397Z,102027.83
2022-08-29T19:01:53.637Z,102044.48
2022-08-29T19:04:25.402Z,102046.14
2022-08-29T19:06:55.267Z,102042.16
2022-08-29T19:09:25.029Z,102047.66
2022-08-29T19:11:54.798Z,102048.82
2022-08-29T19:14:24.357Z,102037.77
2022-08-29T19:16:55.872Z,102041.69
2022-08-29T19:19:25.686Z,102036.08
2022-08-29T19:21:56.236Z,102036.08
2022-08-29T19:24:26.041Z,102064.25
2022-08-29T19:26:55.799Z,102053.94
2022-08-29T19:29:25.563Z,102060.88
2022-08-29T19:31:55.482Z,102057.64
2022-08-29T19:34:25.308Z,102059.50
2022-08-29T19:36:55.068Z,102067.17
2022-08-29T19:39:26.518Z,102061.72
2022-08-29T19:41:56.283Z,102063.28
2022-08-29T19:44:25.777Z,102068.67
2022-08-29T19:46:55.641Z,102071.06
2022-08-29T19:49:25.479Z,102066.81
2022-08-29T19:51:55.329Z,102076.08
2022-08-29T19:54:25.650Z,102070.70
2022-08-29T19:56:55.703Z,102067.18
2022-08-29T19:59:25.489Z,102070.97
2022-08-29T20:01:57.567Z,102073.45
2022-08-29T20:04:27.555Z,102067.14
2022-08-29T20:07:00.221Z,102063.59
2022-08-29T20:09:28.776Z,102065.98
2022-08-29T20:11:58.691Z,102065.18
2022-08-29T20:14:28.542Z,102065.45
2022-08-29T20:16:58.387Z,102062.58
2022-08-29T20:19:28.891Z,102069.06
2022-08-29T20:21:58.667Z,102068.05
2022-08-29T20:24:28.422Z,102068.25
2022-08-29T20:26:58.369Z,102071.25
2022-08-29T20:29:30.528Z,102076.91
2022-08-29T20:32:01.766Z,102079.70
2022-08-29T20:34:31.674Z,102077.23
2022-08-29T20:37:10.414Z,102075.45
2022-08-29T20:39:48.872Z,102080.66
2022-08-29T20:42:21.324Z,102089.05
2022-08-29T20:44:51.765Z,102088.38
2022-08-29T20:47:22.386Z,102092.79
2022-08-29T20:49:55.744Z,102092.25
2022-08-29T20:52:25.453Z,102093.94
2022-08-29T20:54:55.235Z,102101.66
2022-08-29T20:57:25.364Z,102101.59
2022-08-29T20:59:55.132Z,102101.39
2022-08-29T21:02:24.665Z,102107.66
2022-08-29T21:05:11.946Z,102102.38
2022-08-29T21:07:46.579Z,102105.29
2022-08-29T21:10:12.960Z,102110.63
2022-08-29T21:12:42.722Z,102106.21
2022-08-29T21:15:12.569Z,102100.08
2022-08-29T21:17:42.630Z,102105.25
2022-08-29T21:20:12.916Z,102106.78
2022-08-29T21:22:42.747Z,102100.11
2022-08-29T21:25:12.659Z,102102.19
2022-08-29T21:27:42.425Z,102105.80
2022-08-29T21:30:13.403Z,102105.80
2022-08-29T21:32:43.174Z,102100.17
2022-08-29T21:35:12.770Z,102107.98
2022-08-29T21:37:43.008Z,102100.56
2022-08-29T21:40:14.233Z,102105.64
2022-08-29T21:42:44.278Z,102104.80
2022-08-29T21:45:13.829Z,102107.59
2022-08-29T21:47:43.592Z,102109.80
2022-08-29T21:50:17.084Z,102105.20
2022-08-29T21:52:48.261Z,102113.08
2022-08-29T21:55:19.033Z,102102.75
2022-08-29T21:57:51.622Z,102098.23
2022-08-29T22:00:24.657Z,102106.88
2022-08-29T22:02:55.359Z,102104.92
2022-08-29T22:05:25.247Z,102107.27
2022-08-29T22:07:55.116Z,102106.06
2022-08-29T22:10:28.234Z,102102.55
2022-08-29T22:12:58.798Z,102107.98
2022-08-29T22:15:46.835Z,102112.30
2022-08-29T22:18:17.910Z,102111.01
2022-08-29T22:20:48.620Z,102116.47
2022-08-29T22:23:20.880Z,102118.56
2022-08-29T22:25:50.842Z,102127.39
2022-08-29T22:28:21.218Z,102127.39
2022-08-29T22:30:51.044Z,102129.48
2022-08-29T22:33:21.276Z,102118.42
2022-08-29T22:35:52.834Z,102118.42
2022-08-29T22:38:22.775Z,102132.31
2022-08-29T22:40:52.560Z,102133.47
2022-08-29T22:43:22.428Z,102114.28
2022-08-29T22:45:53.076Z,102114.28
2022-08-29T22:48:22.933Z,102126.30
2022-08-29T22:50:58.099Z,102131.55
2022-08-29T22:53:24.241Z,102127.48
2022-08-29T22:55:54.300Z,102132.39
2022-08-29T22:58:24.147Z,102127.63
2022-08-29T23:00:54.071Z,102141.63
2022-08-29T23:03:24.217Z,102129.72
2022-08-29T23:05:54.043Z,102132.48
2022-08-29T23:08:25.283Z,102135.80
2022-08-29T23:10:55.056Z,102134.17
2022-08-29T23:13:25.165Z,102135.63
2022-08-29T23:15:55.679Z,102137.85
2022-08-29T23:18:25.443Z,102139.84
2022-08-29T23:20:55.506Z,102143.22
2022-08-29T23:23:25.549Z,102144.17
2022-08-29T23:25:55.377Z,102144.00
2022-08-29T23:28:25.345Z,102131.31
2022-08-29T23:30:57.147Z,102131.31
2022-08-29T23:33:27.224Z,102131.48
2022-08-29T23:35:57.618Z,102140.62
2022-08-29T23:38:27.527Z,102143.09
2022-08-29T23:40:59.229Z,102138.33
2022-08-29T23:43:30.836Z,102140.08
2022-08-29T23:46:03.129Z,102139.41
2022-08-29T23:48:33.459Z,102137.55
2022-08-29T23:51:08.898Z,102132.32
2022-08-29T23:53:39.266Z,102137.92
2022-08-29T23:56:13.459Z,102139.61
2022-08-29T23:58:44.069Z,102135.77
